<?xml version="1.0" encoding="UTF-8" standalone="no" ?>
<gpx xmlns="http://www.topografix.com/GPX/1/1" xmlns:xsi="http://www.w3.org/2001/XMLSchema-instance" xsi:schemaLocation="http://www.topografix.com/GPX/1/1 http://www.topografix.com/GPX/1/1/gpx.xsd" version="1.1" creator="VisuGPX - https://www.visugpx.com">
  <metadata>
    <name>2013 08 25 - VTT Corronsac</name>
    <desc><![CDATA[2013 08 25 - VTT Corronsac]]></desc>
  </metadata>
  <trk>
    <name><![CDATA[Tracé actuel: 25 AOU 2013 15:47]]></name>
    <trkseg>
      <trkpt lat="43.46181" lon="1.46992">
        <ele>274</ele>
        <time>2013-08-25T14:08:54Z</time>
      </trkpt>
      <trkpt lat="43.46179" lon="1.47012">
        <ele>275</ele>
        <time>2013-08-25T14:09:03Z</time>
      </trkpt>
      <trkpt lat="43.46184" lon="1.47038">
        <ele>275</ele>
        <time>2013-08-25T14:09:12Z</time>
      </trkpt>
      <trkpt lat="43.46184" lon="1.47057">
        <ele>275</ele>
        <time>2013-08-25T14:09:19Z</time>
      </trkpt>
      <trkpt lat="43.46181" lon="1.47078">
        <ele>276</ele>
        <time>2013-08-25T14:09:28Z</time>
      </trkpt>
      <trkpt lat="43.46173" lon="1.471">
        <ele>276</ele>
        <time>2013-08-25T14:09:37Z</time>
      </trkpt>
      <trkpt lat="43.46166" lon="1.47123">
        <ele>279</ele>
        <time>2013-08-25T14:09:46Z</time>
      </trkpt>
      <trkpt lat="43.46158" lon="1.47144">
        <ele>279</ele>
        <time>2013-08-25T14:09:55Z</time>
      </trkpt>
      <trkpt lat="43.46151" lon="1.4716">
        <ele>279</ele>
        <time>2013-08-25T14:10:02Z</time>
      </trkpt>
      <trkpt lat="43.46141" lon="1.47182">
        <ele>279</ele>
        <time>2013-08-25T14:10:12Z</time>
      </trkpt>
      <trkpt lat="43.46132" lon="1.47201">
        <ele>279</ele>
        <time>2013-08-25T14:10:20Z</time>
      </trkpt>
      <trkpt lat="43.46122" lon="1.47227">
        <ele>279</ele>
        <time>2013-08-25T14:10:30Z</time>
      </trkpt>
      <trkpt lat="43.46111" lon="1.4725">
        <ele>280</ele>
        <time>2013-08-25T14:10:39Z</time>
      </trkpt>
      <trkpt lat="43.46101" lon="1.47268">
        <ele>280</ele>
        <time>2013-08-25T14:10:47Z</time>
      </trkpt>
      <trkpt lat="43.46088" lon="1.47294">
        <ele>280</ele>
        <time>2013-08-25T14:10:57Z</time>
      </trkpt>
      <trkpt lat="43.46081" lon="1.47309">
        <ele>281</ele>
        <time>2013-08-25T14:11:04Z</time>
      </trkpt>
      <trkpt lat="43.46072" lon="1.47328">
        <ele>282</ele>
        <time>2013-08-25T14:11:12Z</time>
      </trkpt>
      <trkpt lat="43.46061" lon="1.47353">
        <ele>281</ele>
        <time>2013-08-25T14:11:20Z</time>
      </trkpt>
      <trkpt lat="43.46043" lon="1.47396">
        <ele>281</ele>
        <time>2013-08-25T14:11:32Z</time>
      </trkpt>
      <trkpt lat="43.46031" lon="1.47426">
        <ele>280</ele>
        <time>2013-08-25T14:11:40Z</time>
      </trkpt>
      <trkpt lat="43.46016" lon="1.47465">
        <ele>280</ele>
        <time>2013-08-25T14:11:51Z</time>
      </trkpt>
      <trkpt lat="43.46005" lon="1.47486">
        <ele>281</ele>
        <time>2013-08-25T14:11:58Z</time>
      </trkpt>
      <trkpt lat="43.45982" lon="1.47515">
        <ele>280</ele>
        <time>2013-08-25T14:12:05Z</time>
      </trkpt>
      <trkpt lat="43.45954" lon="1.47561">
        <ele>279</ele>
        <time>2013-08-25T14:12:14Z</time>
      </trkpt>
      <trkpt lat="43.45932" lon="1.47604">
        <ele>278</ele>
        <time>2013-08-25T14:12:23Z</time>
      </trkpt>
      <trkpt lat="43.45927" lon="1.47613">
        <ele>278</ele>
        <time>2013-08-25T14:12:26Z</time>
      </trkpt>
      <trkpt lat="43.45917" lon="1.4761">
        <ele>278</ele>
        <time>2013-08-25T14:12:29Z</time>
      </trkpt>
      <trkpt lat="43.45913" lon="1.47606">
        <ele>278</ele>
        <time>2013-08-25T14:12:30Z</time>
      </trkpt>
      <trkpt lat="43.45908" lon="1.476">
        <ele>278</ele>
        <time>2013-08-25T14:12:31Z</time>
      </trkpt>
      <trkpt lat="43.45903" lon="1.47595">
        <ele>278</ele>
        <time>2013-08-25T14:12:32Z</time>
      </trkpt>
      <trkpt lat="43.45896" lon="1.4759">
        <ele>278</ele>
        <time>2013-08-25T14:12:33Z</time>
      </trkpt>
      <trkpt lat="43.45863" lon="1.47561">
        <ele>274</ele>
        <time>2013-08-25T14:12:37Z</time>
      </trkpt>
      <trkpt lat="43.45806" lon="1.47504">
        <ele>267</ele>
        <time>2013-08-25T14:12:43Z</time>
      </trkpt>
      <trkpt lat="43.45786" lon="1.47483">
        <ele>264</ele>
        <time>2013-08-25T14:12:46Z</time>
      </trkpt>
      <trkpt lat="43.45781" lon="1.47479">
        <ele>264</ele>
        <time>2013-08-25T14:12:47Z</time>
      </trkpt>
      <trkpt lat="43.45777" lon="1.47477">
        <ele>264</ele>
        <time>2013-08-25T14:12:48Z</time>
      </trkpt>
      <trkpt lat="43.45774" lon="1.47476">
        <ele>264</ele>
        <time>2013-08-25T14:12:49Z</time>
      </trkpt>
      <trkpt lat="43.45772" lon="1.47476">
        <ele>264</ele>
        <time>2013-08-25T14:12:50Z</time>
      </trkpt>
      <trkpt lat="43.45769" lon="1.47477">
        <ele>264</ele>
        <time>2013-08-25T14:12:51Z</time>
      </trkpt>
      <trkpt lat="43.45767" lon="1.47479">
        <ele>264</ele>
        <time>2013-08-25T14:12:52Z</time>
      </trkpt>
      <trkpt lat="43.45766" lon="1.47481">
        <ele>264</ele>
        <time>2013-08-25T14:12:53Z</time>
      </trkpt>
      <trkpt lat="43.45765" lon="1.47483">
        <ele>264</ele>
        <time>2013-08-25T14:12:54Z</time>
      </trkpt>
      <trkpt lat="43.45758" lon="1.47504">
        <ele>265</ele>
        <time>2013-08-25T14:13:01Z</time>
      </trkpt>
      <trkpt lat="43.45748" lon="1.47523">
        <ele>265</ele>
        <time>2013-08-25T14:13:07Z</time>
      </trkpt>
      <trkpt lat="43.45738" lon="1.47551">
        <ele>265</ele>
        <time>2013-08-25T14:13:15Z</time>
      </trkpt>
      <trkpt lat="43.45729" lon="1.47571">
        <ele>265</ele>
        <time>2013-08-25T14:13:22Z</time>
      </trkpt>
      <trkpt lat="43.45719" lon="1.47592">
        <ele>266</ele>
        <time>2013-08-25T14:13:29Z</time>
      </trkpt>
      <trkpt lat="43.45708" lon="1.47615">
        <ele>266</ele>
        <time>2013-08-25T14:13:36Z</time>
      </trkpt>
      <trkpt lat="43.45694" lon="1.47648">
        <ele>266</ele>
        <time>2013-08-25T14:13:44Z</time>
      </trkpt>
      <trkpt lat="43.45691" lon="1.47658">
        <ele>266</ele>
        <time>2013-08-25T14:13:46Z</time>
      </trkpt>
      <trkpt lat="43.45677" lon="1.47707">
        <ele>268</ele>
        <time>2013-08-25T14:13:54Z</time>
      </trkpt>
      <trkpt lat="43.45676" lon="1.47714">
        <ele>268</ele>
        <time>2013-08-25T14:13:55Z</time>
      </trkpt>
      <trkpt lat="43.45674" lon="1.4772">
        <ele>267</ele>
        <time>2013-08-25T14:13:56Z</time>
      </trkpt>
      <trkpt lat="43.45665" lon="1.4776">
        <ele>265</ele>
        <time>2013-08-25T14:14:02Z</time>
      </trkpt>
      <trkpt lat="43.45655" lon="1.47798">
        <ele>264</ele>
        <time>2013-08-25T14:14:08Z</time>
      </trkpt>
      <trkpt lat="43.45653" lon="1.47804">
        <ele>264</ele>
        <time>2013-08-25T14:14:09Z</time>
      </trkpt>
      <trkpt lat="43.45652" lon="1.4781">
        <ele>264</ele>
        <time>2013-08-25T14:14:10Z</time>
      </trkpt>
      <trkpt lat="43.4565" lon="1.47815">
        <ele>264</ele>
        <time>2013-08-25T14:14:11Z</time>
      </trkpt>
      <trkpt lat="43.45648" lon="1.47821">
        <ele>265</ele>
        <time>2013-08-25T14:14:12Z</time>
      </trkpt>
      <trkpt lat="43.45634" lon="1.47864">
        <ele>266</ele>
        <time>2013-08-25T14:14:20Z</time>
      </trkpt>
      <trkpt lat="43.45627" lon="1.479">
        <ele>266</ele>
        <time>2013-08-25T14:14:27Z</time>
      </trkpt>
      <trkpt lat="43.45621" lon="1.47931">
        <ele>267</ele>
        <time>2013-08-25T14:14:34Z</time>
      </trkpt>
      <trkpt lat="43.45616" lon="1.47968">
        <ele>267</ele>
        <time>2013-08-25T14:14:41Z</time>
      </trkpt>
      <trkpt lat="43.45606" lon="1.48005">
        <ele>267</ele>
        <time>2013-08-25T14:14:48Z</time>
      </trkpt>
      <trkpt lat="43.45597" lon="1.48043">
        <ele>267</ele>
        <time>2013-08-25T14:14:54Z</time>
      </trkpt>
      <trkpt lat="43.45585" lon="1.48088">
        <ele>266</ele>
        <time>2013-08-25T14:15:01Z</time>
      </trkpt>
      <trkpt lat="43.45577" lon="1.48126">
        <ele>261</ele>
        <time>2013-08-25T14:15:06Z</time>
      </trkpt>
      <trkpt lat="43.45565" lon="1.48173">
        <ele>262</ele>
        <time>2013-08-25T14:15:13Z</time>
      </trkpt>
      <trkpt lat="43.45557" lon="1.48204">
        <ele>262</ele>
        <time>2013-08-25T14:15:19Z</time>
      </trkpt>
      <trkpt lat="43.4555" lon="1.48235">
        <ele>262</ele>
        <time>2013-08-25T14:15:25Z</time>
      </trkpt>
      <trkpt lat="43.45542" lon="1.48269">
        <ele>265</ele>
        <time>2013-08-25T14:15:32Z</time>
      </trkpt>
      <trkpt lat="43.45528" lon="1.48306">
        <ele>265</ele>
        <time>2013-08-25T14:15:40Z</time>
      </trkpt>
      <trkpt lat="43.45509" lon="1.48337">
        <ele>267</ele>
        <time>2013-08-25T14:15:48Z</time>
      </trkpt>
      <trkpt lat="43.45491" lon="1.48368">
        <ele>268</ele>
        <time>2013-08-25T14:15:56Z</time>
      </trkpt>
      <trkpt lat="43.45481" lon="1.48384">
        <ele>269</ele>
        <time>2013-08-25T14:16:01Z</time>
      </trkpt>
      <trkpt lat="43.45479" lon="1.48386">
        <ele>269</ele>
        <time>2013-08-25T14:16:02Z</time>
      </trkpt>
      <trkpt lat="43.45477" lon="1.48389">
        <ele>269</ele>
        <time>2013-08-25T14:16:03Z</time>
      </trkpt>
      <trkpt lat="43.45475" lon="1.4839">
        <ele>269</ele>
        <time>2013-08-25T14:16:04Z</time>
      </trkpt>
      <trkpt lat="43.45472" lon="1.48392">
        <ele>269</ele>
        <time>2013-08-25T14:16:05Z</time>
      </trkpt>
      <trkpt lat="43.4546" lon="1.48404">
        <ele>269</ele>
        <time>2013-08-25T14:16:11Z</time>
      </trkpt>
      <trkpt lat="43.45452" lon="1.48416">
        <ele>270</ele>
        <time>2013-08-25T14:16:17Z</time>
      </trkpt>
      <trkpt lat="43.4544" lon="1.48424">
        <ele>272</ele>
        <time>2013-08-25T14:16:23Z</time>
      </trkpt>
      <trkpt lat="43.45427" lon="1.48433">
        <ele>272</ele>
        <time>2013-08-25T14:16:31Z</time>
      </trkpt>
      <trkpt lat="43.45417" lon="1.4844">
        <ele>272</ele>
        <time>2013-08-25T14:16:41Z</time>
      </trkpt>
      <trkpt lat="43.45413" lon="1.48445">
        <ele>273</ele>
        <time>2013-08-25T14:16:48Z</time>
      </trkpt>
      <trkpt lat="43.45406" lon="1.48453">
        <ele>273</ele>
        <time>2013-08-25T14:16:57Z</time>
      </trkpt>
      <trkpt lat="43.45396" lon="1.48457">
        <ele>273</ele>
        <time>2013-08-25T14:17:04Z</time>
      </trkpt>
      <trkpt lat="43.45383" lon="1.48465">
        <ele>273</ele>
        <time>2013-08-25T14:17:12Z</time>
      </trkpt>
      <trkpt lat="43.45375" lon="1.48473">
        <ele>273</ele>
        <time>2013-08-25T14:17:18Z</time>
      </trkpt>
      <trkpt lat="43.45362" lon="1.48485">
        <ele>274</ele>
        <time>2013-08-25T14:17:25Z</time>
      </trkpt>
      <trkpt lat="43.45348" lon="1.48499">
        <ele>275</ele>
        <time>2013-08-25T14:17:33Z</time>
      </trkpt>
      <trkpt lat="43.45339" lon="1.48493">
        <ele>275</ele>
        <time>2013-08-25T14:17:40Z</time>
      </trkpt>
      <trkpt lat="43.45326" lon="1.4848">
        <ele>272</ele>
        <time>2013-08-25T14:17:45Z</time>
      </trkpt>
      <trkpt lat="43.45292" lon="1.48465">
        <ele>269</ele>
        <time>2013-08-25T14:17:52Z</time>
      </trkpt>
      <trkpt lat="43.45248" lon="1.48446">
        <ele>262</ele>
        <time>2013-08-25T14:17:57Z</time>
      </trkpt>
      <trkpt lat="43.45177" lon="1.48415">
        <ele>259</ele>
        <time>2013-08-25T14:18:05Z</time>
      </trkpt>
      <trkpt lat="43.45149" lon="1.48391">
        <ele>257</ele>
        <time>2013-08-25T14:18:09Z</time>
      </trkpt>
      <trkpt lat="43.45099" lon="1.4834">
        <ele>255</ele>
        <time>2013-08-25T14:18:16Z</time>
      </trkpt>
      <trkpt lat="43.4504" lon="1.48284">
        <ele>250</ele>
        <time>2013-08-25T14:18:24Z</time>
      </trkpt>
      <trkpt lat="43.45006" lon="1.48246">
        <ele>248</ele>
        <time>2013-08-25T14:18:30Z</time>
      </trkpt>
      <trkpt lat="43.44998" lon="1.48238">
        <ele>245</ele>
        <time>2013-08-25T14:18:35Z</time>
      </trkpt>
      <trkpt lat="43.44987" lon="1.48223">
        <ele>243</ele>
        <time>2013-08-25T14:18:42Z</time>
      </trkpt>
      <trkpt lat="43.44986" lon="1.4822">
        <ele>243</ele>
        <time>2013-08-25T14:18:44Z</time>
      </trkpt>
      <trkpt lat="43.44984" lon="1.48206">
        <ele>243</ele>
        <time>2013-08-25T14:18:50Z</time>
      </trkpt>
      <trkpt lat="43.44982" lon="1.48206">
        <ele>243</ele>
        <time>2013-08-25T14:18:52Z</time>
      </trkpt>
      <trkpt lat="43.44983" lon="1.48214">
        <ele>243</ele>
        <time>2013-08-25T14:18:57Z</time>
      </trkpt>
      <trkpt lat="43.4498" lon="1.48228">
        <ele>243</ele>
        <time>2013-08-25T14:19:03Z</time>
      </trkpt>
      <trkpt lat="43.4498" lon="1.48234">
        <ele>243</ele>
        <time>2013-08-25T14:19:08Z</time>
      </trkpt>
      <trkpt lat="43.44981" lon="1.48239">
        <ele>243</ele>
        <time>2013-08-25T14:19:17Z</time>
      </trkpt>
      <trkpt lat="43.44979" lon="1.48259">
        <ele>243</ele>
        <time>2013-08-25T14:19:24Z</time>
      </trkpt>
      <trkpt lat="43.44976" lon="1.48283">
        <ele>243</ele>
        <time>2013-08-25T14:19:30Z</time>
      </trkpt>
      <trkpt lat="43.44972" lon="1.4831">
        <ele>243</ele>
        <time>2013-08-25T14:19:36Z</time>
      </trkpt>
      <trkpt lat="43.44969" lon="1.48332">
        <ele>243</ele>
        <time>2013-08-25T14:19:40Z</time>
      </trkpt>
      <trkpt lat="43.44965" lon="1.48357">
        <ele>243</ele>
        <time>2013-08-25T14:19:44Z</time>
      </trkpt>
      <trkpt lat="43.4496" lon="1.48387">
        <ele>243</ele>
        <time>2013-08-25T14:19:48Z</time>
      </trkpt>
      <trkpt lat="43.44954" lon="1.48429">
        <ele>244</ele>
        <time>2013-08-25T14:19:54Z</time>
      </trkpt>
      <trkpt lat="43.44953" lon="1.48435">
        <ele>244</ele>
        <time>2013-08-25T14:19:55Z</time>
      </trkpt>
      <trkpt lat="43.4495" lon="1.4847">
        <ele>244</ele>
        <time>2013-08-25T14:20:00Z</time>
      </trkpt>
      <trkpt lat="43.44949" lon="1.48488">
        <ele>244</ele>
        <time>2013-08-25T14:20:03Z</time>
      </trkpt>
      <trkpt lat="43.44942" lon="1.48495">
        <ele>243</ele>
        <time>2013-08-25T14:20:07Z</time>
      </trkpt>
      <trkpt lat="43.44931" lon="1.48491">
        <ele>243</ele>
        <time>2013-08-25T14:20:13Z</time>
      </trkpt>
      <trkpt lat="43.44931" lon="1.48494">
        <ele>243</ele>
        <time>2013-08-25T14:20:22Z</time>
      </trkpt>
      <trkpt lat="43.44925" lon="1.48492">
        <ele>242</ele>
        <time>2013-08-25T14:20:35Z</time>
      </trkpt>
      <trkpt lat="43.44923" lon="1.48492">
        <ele>242</ele>
        <time>2013-08-25T14:20:50Z</time>
      </trkpt>
      <trkpt lat="43.44923" lon="1.48491">
        <ele>242</ele>
        <time>2013-08-25T14:20:58Z</time>
      </trkpt>
      <trkpt lat="43.44922" lon="1.48491">
        <ele>242</ele>
        <time>2013-08-25T14:21:09Z</time>
      </trkpt>
      <trkpt lat="43.44922" lon="1.48491">
        <ele>242</ele>
        <time>2013-08-25T14:21:11Z</time>
      </trkpt>
      <trkpt lat="43.44912" lon="1.48488">
        <ele>241</ele>
        <time>2013-08-25T14:21:18Z</time>
      </trkpt>
      <trkpt lat="43.44899" lon="1.48487">
        <ele>241</ele>
        <time>2013-08-25T14:21:25Z</time>
      </trkpt>
      <trkpt lat="43.44894" lon="1.48491">
        <ele>241</ele>
        <time>2013-08-25T14:21:31Z</time>
      </trkpt>
      <trkpt lat="43.44892" lon="1.48491">
        <ele>241</ele>
        <time>2013-08-25T14:21:34Z</time>
      </trkpt>
      <trkpt lat="43.44887" lon="1.48483">
        <ele>241</ele>
        <time>2013-08-25T14:21:40Z</time>
      </trkpt>
      <trkpt lat="43.44886" lon="1.48474">
        <ele>241</ele>
        <time>2013-08-25T14:21:46Z</time>
      </trkpt>
      <trkpt lat="43.44882" lon="1.48457">
        <ele>241</ele>
        <time>2013-08-25T14:21:54Z</time>
      </trkpt>
      <trkpt lat="43.4488" lon="1.48445">
        <ele>241</ele>
        <time>2013-08-25T14:22:01Z</time>
      </trkpt>
      <trkpt lat="43.44876" lon="1.48442">
        <ele>241</ele>
        <time>2013-08-25T14:22:14Z</time>
      </trkpt>
      <trkpt lat="43.44874" lon="1.48441">
        <ele>241</ele>
        <time>2013-08-25T14:22:27Z</time>
      </trkpt>
      <trkpt lat="43.44873" lon="1.4844">
        <ele>241</ele>
        <time>2013-08-25T14:22:33Z</time>
      </trkpt>
      <trkpt lat="43.44873" lon="1.48435">
        <ele>241</ele>
        <time>2013-08-25T14:22:35Z</time>
      </trkpt>
      <trkpt lat="43.44874" lon="1.48429">
        <ele>241</ele>
        <time>2013-08-25T14:22:38Z</time>
      </trkpt>
      <trkpt lat="43.44876" lon="1.48414">
        <ele>240</ele>
        <time>2013-08-25T14:22:44Z</time>
      </trkpt>
      <trkpt lat="43.44878" lon="1.48412">
        <ele>240</ele>
        <time>2013-08-25T14:22:47Z</time>
      </trkpt>
      <trkpt lat="43.44876" lon="1.48399">
        <ele>240</ele>
        <time>2013-08-25T14:22:52Z</time>
      </trkpt>
      <trkpt lat="43.44865" lon="1.48385">
        <ele>240</ele>
        <time>2013-08-25T14:23:00Z</time>
      </trkpt>
      <trkpt lat="43.44863" lon="1.48383">
        <ele>240</ele>
        <time>2013-08-25T14:23:01Z</time>
      </trkpt>
      <trkpt lat="43.44845" lon="1.48375">
        <ele>240</ele>
        <time>2013-08-25T14:23:10Z</time>
      </trkpt>
      <trkpt lat="43.44827" lon="1.48365">
        <ele>241</ele>
        <time>2013-08-25T14:23:16Z</time>
      </trkpt>
      <trkpt lat="43.44818" lon="1.48367">
        <ele>241</ele>
        <time>2013-08-25T14:23:21Z</time>
      </trkpt>
      <trkpt lat="43.44804" lon="1.48368">
        <ele>241</ele>
        <time>2013-08-25T14:23:28Z</time>
      </trkpt>
      <trkpt lat="43.4479" lon="1.48372">
        <ele>242</ele>
        <time>2013-08-25T14:23:35Z</time>
      </trkpt>
      <trkpt lat="43.44775" lon="1.48376">
        <ele>242</ele>
        <time>2013-08-25T14:23:42Z</time>
      </trkpt>
      <trkpt lat="43.44763" lon="1.48385">
        <ele>242</ele>
        <time>2013-08-25T14:23:48Z</time>
      </trkpt>
      <trkpt lat="43.44755" lon="1.48397">
        <ele>243</ele>
        <time>2013-08-25T14:23:55Z</time>
      </trkpt>
      <trkpt lat="43.44754" lon="1.48398">
        <ele>243</ele>
        <time>2013-08-25T14:24:00Z</time>
      </trkpt>
      <trkpt lat="43.44753" lon="1.48398">
        <ele>243</ele>
        <time>2013-08-25T14:24:13Z</time>
      </trkpt>
      <trkpt lat="43.44753" lon="1.48398">
        <ele>243</ele>
        <time>2013-08-25T14:24:25Z</time>
      </trkpt>
      <trkpt lat="43.44752" lon="1.48398">
        <ele>243</ele>
        <time>2013-08-25T14:24:41Z</time>
      </trkpt>
      <trkpt lat="43.44753" lon="1.48399">
        <ele>243</ele>
        <time>2013-08-25T14:24:59Z</time>
      </trkpt>
      <trkpt lat="43.44752" lon="1.48398">
        <ele>243</ele>
        <time>2013-08-25T14:25:13Z</time>
      </trkpt>
      <trkpt lat="43.44752" lon="1.48399">
        <ele>243</ele>
        <time>2013-08-25T14:25:24Z</time>
      </trkpt>
      <trkpt lat="43.44752" lon="1.48398">
        <ele>243</ele>
        <time>2013-08-25T14:25:36Z</time>
      </trkpt>
      <trkpt lat="43.44752" lon="1.48398">
        <ele>243</ele>
        <time>2013-08-25T14:25:49Z</time>
      </trkpt>
      <trkpt lat="43.44752" lon="1.48398">
        <ele>243</ele>
        <time>2013-08-25T14:26:07Z</time>
      </trkpt>
      <trkpt lat="43.44752" lon="1.48398">
        <ele>243</ele>
        <time>2013-08-25T14:26:16Z</time>
      </trkpt>
      <trkpt lat="43.44752" lon="1.48398">
        <ele>243</ele>
        <time>2013-08-25T14:26:30Z</time>
      </trkpt>
      <trkpt lat="43.44751" lon="1.48398">
        <ele>243</ele>
        <time>2013-08-25T14:26:43Z</time>
      </trkpt>
      <trkpt lat="43.44751" lon="1.48398">
        <ele>243</ele>
        <time>2013-08-25T14:27:02Z</time>
      </trkpt>
      <trkpt lat="43.44751" lon="1.48398">
        <ele>243</ele>
        <time>2013-08-25T14:27:23Z</time>
      </trkpt>
      <trkpt lat="43.44751" lon="1.484">
        <ele>243</ele>
        <time>2013-08-25T14:27:29Z</time>
      </trkpt>
      <trkpt lat="43.44748" lon="1.48411">
        <ele>243</ele>
        <time>2013-08-25T14:27:35Z</time>
      </trkpt>
      <trkpt lat="43.44741" lon="1.48439">
        <ele>244</ele>
        <time>2013-08-25T14:27:45Z</time>
      </trkpt>
      <trkpt lat="43.44737" lon="1.48462">
        <ele>244</ele>
        <time>2013-08-25T14:27:53Z</time>
      </trkpt>
      <trkpt lat="43.44733" lon="1.48486">
        <ele>245</ele>
        <time>2013-08-25T14:28:02Z</time>
      </trkpt>
      <trkpt lat="43.44729" lon="1.4851">
        <ele>246</ele>
        <time>2013-08-25T14:28:11Z</time>
      </trkpt>
      <trkpt lat="43.44722" lon="1.48538">
        <ele>247</ele>
        <time>2013-08-25T14:28:22Z</time>
      </trkpt>
      <trkpt lat="43.44718" lon="1.48562">
        <ele>247</ele>
        <time>2013-08-25T14:28:31Z</time>
      </trkpt>
      <trkpt lat="43.44714" lon="1.48585">
        <ele>249</ele>
        <time>2013-08-25T14:28:39Z</time>
      </trkpt>
      <trkpt lat="43.44709" lon="1.48609">
        <ele>249</ele>
        <time>2013-08-25T14:28:48Z</time>
      </trkpt>
      <trkpt lat="43.44704" lon="1.48633">
        <ele>249</ele>
        <time>2013-08-25T14:28:58Z</time>
      </trkpt>
      <trkpt lat="43.44699" lon="1.48658">
        <ele>250</ele>
        <time>2013-08-25T14:29:08Z</time>
      </trkpt>
      <trkpt lat="43.44692" lon="1.48688">
        <ele>251</ele>
        <time>2013-08-25T14:29:19Z</time>
      </trkpt>
      <trkpt lat="43.44681" lon="1.48714">
        <ele>252</ele>
        <time>2013-08-25T14:29:29Z</time>
      </trkpt>
      <trkpt lat="43.44669" lon="1.48735">
        <ele>253</ele>
        <time>2013-08-25T14:29:38Z</time>
      </trkpt>
      <trkpt lat="43.44662" lon="1.48758">
        <ele>254</ele>
        <time>2013-08-25T14:29:47Z</time>
      </trkpt>
      <trkpt lat="43.44657" lon="1.48778">
        <ele>254</ele>
        <time>2013-08-25T14:29:55Z</time>
      </trkpt>
      <trkpt lat="43.44657" lon="1.48781">
        <ele>254</ele>
        <time>2013-08-25T14:30:01Z</time>
      </trkpt>
      <trkpt lat="43.44655" lon="1.48791">
        <ele>254</ele>
        <time>2013-08-25T14:30:06Z</time>
      </trkpt>
      <trkpt lat="43.44653" lon="1.48809">
        <ele>254</ele>
        <time>2013-08-25T14:30:13Z</time>
      </trkpt>
      <trkpt lat="43.44653" lon="1.48811">
        <ele>254</ele>
        <time>2013-08-25T14:30:19Z</time>
      </trkpt>
      <trkpt lat="43.44652" lon="1.4881">
        <ele>254</ele>
        <time>2013-08-25T14:30:29Z</time>
      </trkpt>
      <trkpt lat="43.44653" lon="1.48811">
        <ele>254</ele>
        <time>2013-08-25T14:30:45Z</time>
      </trkpt>
      <trkpt lat="43.44652" lon="1.48811">
        <ele>254</ele>
        <time>2013-08-25T14:31:00Z</time>
      </trkpt>
      <trkpt lat="43.44652" lon="1.48811">
        <ele>254</ele>
        <time>2013-08-25T14:31:06Z</time>
      </trkpt>
      <trkpt lat="43.44648" lon="1.48828">
        <ele>255</ele>
        <time>2013-08-25T14:31:14Z</time>
      </trkpt>
      <trkpt lat="43.44643" lon="1.4885">
        <ele>256</ele>
        <time>2013-08-25T14:31:22Z</time>
      </trkpt>
      <trkpt lat="43.44638" lon="1.48874">
        <ele>256</ele>
        <time>2013-08-25T14:31:31Z</time>
      </trkpt>
      <trkpt lat="43.44635" lon="1.48906">
        <ele>257</ele>
        <time>2013-08-25T14:31:42Z</time>
      </trkpt>
      <trkpt lat="43.4464" lon="1.48931">
        <ele>257</ele>
        <time>2013-08-25T14:31:47Z</time>
      </trkpt>
      <trkpt lat="43.4465" lon="1.4895">
        <ele>257</ele>
        <time>2013-08-25T14:31:54Z</time>
      </trkpt>
      <trkpt lat="43.4466" lon="1.48966">
        <ele>257</ele>
        <time>2013-08-25T14:32:00Z</time>
      </trkpt>
      <trkpt lat="43.44674" lon="1.48987">
        <ele>257</ele>
        <time>2013-08-25T14:32:08Z</time>
      </trkpt>
      <trkpt lat="43.44683" lon="1.49">
        <ele>257</ele>
        <time>2013-08-25T14:32:12Z</time>
      </trkpt>
      <trkpt lat="43.44686" lon="1.49004">
        <ele>256</ele>
        <time>2013-08-25T14:32:13Z</time>
      </trkpt>
      <trkpt lat="43.4469" lon="1.49009">
        <ele>256</ele>
        <time>2013-08-25T14:32:14Z</time>
      </trkpt>
      <trkpt lat="43.44693" lon="1.49014">
        <ele>255</ele>
        <time>2013-08-25T14:32:15Z</time>
      </trkpt>
      <trkpt lat="43.44695" lon="1.49021">
        <ele>255</ele>
        <time>2013-08-25T14:32:16Z</time>
      </trkpt>
      <trkpt lat="43.44697" lon="1.49028">
        <ele>255</ele>
        <time>2013-08-25T14:32:17Z</time>
      </trkpt>
      <trkpt lat="43.44698" lon="1.49034">
        <ele>255</ele>
        <time>2013-08-25T14:32:18Z</time>
      </trkpt>
      <trkpt lat="43.44697" lon="1.49038">
        <ele>255</ele>
        <time>2013-08-25T14:32:19Z</time>
      </trkpt>
      <trkpt lat="43.44696" lon="1.49043">
        <ele>255</ele>
        <time>2013-08-25T14:32:20Z</time>
      </trkpt>
      <trkpt lat="43.44691" lon="1.49072">
        <ele>255</ele>
        <time>2013-08-25T14:32:28Z</time>
      </trkpt>
      <trkpt lat="43.44684" lon="1.49104">
        <ele>255</ele>
        <time>2013-08-25T14:32:37Z</time>
      </trkpt>
      <trkpt lat="43.44678" lon="1.49129">
        <ele>255</ele>
        <time>2013-08-25T14:32:44Z</time>
      </trkpt>
      <trkpt lat="43.44673" lon="1.49153">
        <ele>255</ele>
        <time>2013-08-25T14:32:51Z</time>
      </trkpt>
      <trkpt lat="43.44664" lon="1.4919">
        <ele>254</ele>
        <time>2013-08-25T14:33:01Z</time>
      </trkpt>
      <trkpt lat="43.44658" lon="1.49229">
        <ele>255</ele>
        <time>2013-08-25T14:33:10Z</time>
      </trkpt>
      <trkpt lat="43.44654" lon="1.49258">
        <ele>256</ele>
        <time>2013-08-25T14:33:17Z</time>
      </trkpt>
      <trkpt lat="43.44647" lon="1.49292">
        <ele>255</ele>
        <time>2013-08-25T14:33:26Z</time>
      </trkpt>
      <trkpt lat="43.4464" lon="1.49327">
        <ele>256</ele>
        <time>2013-08-25T14:33:34Z</time>
      </trkpt>
      <trkpt lat="43.44631" lon="1.49377">
        <ele>256</ele>
        <time>2013-08-25T14:33:43Z</time>
      </trkpt>
      <trkpt lat="43.4462" lon="1.49431">
        <ele>256</ele>
        <time>2013-08-25T14:33:52Z</time>
      </trkpt>
      <trkpt lat="43.44601" lon="1.49487">
        <ele>257</ele>
        <time>2013-08-25T14:34:02Z</time>
      </trkpt>
      <trkpt lat="43.44585" lon="1.49526">
        <ele>258</ele>
        <time>2013-08-25T14:34:10Z</time>
      </trkpt>
      <trkpt lat="43.44565" lon="1.49578">
        <ele>256</ele>
        <time>2013-08-25T14:34:21Z</time>
      </trkpt>
      <trkpt lat="43.44546" lon="1.49623">
        <ele>258</ele>
        <time>2013-08-25T14:34:31Z</time>
      </trkpt>
      <trkpt lat="43.44528" lon="1.49669">
        <ele>260</ele>
        <time>2013-08-25T14:34:41Z</time>
      </trkpt>
      <trkpt lat="43.44511" lon="1.49711">
        <ele>260</ele>
        <time>2013-08-25T14:34:51Z</time>
      </trkpt>
      <trkpt lat="43.44491" lon="1.49761">
        <ele>260</ele>
        <time>2013-08-25T14:35:03Z</time>
      </trkpt>
      <trkpt lat="43.44475" lon="1.498">
        <ele>259</ele>
        <time>2013-08-25T14:35:12Z</time>
      </trkpt>
      <trkpt lat="43.44453" lon="1.49846">
        <ele>258</ele>
        <time>2013-08-25T14:35:23Z</time>
      </trkpt>
      <trkpt lat="43.4443" lon="1.4989">
        <ele>258</ele>
        <time>2013-08-25T14:35:35Z</time>
      </trkpt>
      <trkpt lat="43.44414" lon="1.49916">
        <ele>259</ele>
        <time>2013-08-25T14:35:44Z</time>
      </trkpt>
      <trkpt lat="43.44402" lon="1.4994">
        <ele>258</ele>
        <time>2013-08-25T14:35:51Z</time>
      </trkpt>
      <trkpt lat="43.44386" lon="1.49976">
        <ele>257</ele>
        <time>2013-08-25T14:36:00Z</time>
      </trkpt>
      <trkpt lat="43.44375" lon="1.50017">
        <ele>255</ele>
        <time>2013-08-25T14:36:07Z</time>
      </trkpt>
      <trkpt lat="43.44374" lon="1.50025">
        <ele>255</ele>
        <time>2013-08-25T14:36:08Z</time>
      </trkpt>
      <trkpt lat="43.44373" lon="1.50034">
        <ele>255</ele>
        <time>2013-08-25T14:36:09Z</time>
      </trkpt>
      <trkpt lat="43.44373" lon="1.50044">
        <ele>254</ele>
        <time>2013-08-25T14:36:10Z</time>
      </trkpt>
      <trkpt lat="43.44373" lon="1.50117">
        <ele>249</ele>
        <time>2013-08-25T14:36:16Z</time>
      </trkpt>
      <trkpt lat="43.44374" lon="1.50218">
        <ele>242</ele>
        <time>2013-08-25T14:36:23Z</time>
      </trkpt>
      <trkpt lat="43.44369" lon="1.50269">
        <ele>237</ele>
        <time>2013-08-25T14:36:27Z</time>
      </trkpt>
      <trkpt lat="43.44362" lon="1.50318">
        <ele>236</ele>
        <time>2013-08-25T14:36:32Z</time>
      </trkpt>
      <trkpt lat="43.44357" lon="1.50335">
        <ele>234</ele>
        <time>2013-08-25T14:36:36Z</time>
      </trkpt>
      <trkpt lat="43.44353" lon="1.50339">
        <ele>234</ele>
        <time>2013-08-25T14:36:37Z</time>
      </trkpt>
      <trkpt lat="43.44351" lon="1.50342">
        <ele>234</ele>
        <time>2013-08-25T14:36:38Z</time>
      </trkpt>
      <trkpt lat="43.44348" lon="1.50346">
        <ele>234</ele>
        <time>2013-08-25T14:36:39Z</time>
      </trkpt>
      <trkpt lat="43.44347" lon="1.50349">
        <ele>234</ele>
        <time>2013-08-25T14:36:40Z</time>
      </trkpt>
      <trkpt lat="43.44345" lon="1.50352">
        <ele>234</ele>
        <time>2013-08-25T14:36:41Z</time>
      </trkpt>
      <trkpt lat="43.44344" lon="1.50355">
        <ele>234</ele>
        <time>2013-08-25T14:36:42Z</time>
      </trkpt>
      <trkpt lat="43.44343" lon="1.50358">
        <ele>234</ele>
        <time>2013-08-25T14:36:43Z</time>
      </trkpt>
      <trkpt lat="43.44342" lon="1.50361">
        <ele>234</ele>
        <time>2013-08-25T14:36:44Z</time>
      </trkpt>
      <trkpt lat="43.44341" lon="1.50365">
        <ele>234</ele>
        <time>2013-08-25T14:36:45Z</time>
      </trkpt>
      <trkpt lat="43.44339" lon="1.50369">
        <ele>234</ele>
        <time>2013-08-25T14:36:46Z</time>
      </trkpt>
      <trkpt lat="43.44337" lon="1.50373">
        <ele>234</ele>
        <time>2013-08-25T14:36:47Z</time>
      </trkpt>
      <trkpt lat="43.44335" lon="1.50377">
        <ele>233</ele>
        <time>2013-08-25T14:36:48Z</time>
      </trkpt>
      <trkpt lat="43.44334" lon="1.50382">
        <ele>233</ele>
        <time>2013-08-25T14:36:49Z</time>
      </trkpt>
      <trkpt lat="43.44332" lon="1.50386">
        <ele>230</ele>
        <time>2013-08-25T14:36:50Z</time>
      </trkpt>
      <trkpt lat="43.44331" lon="1.50391">
        <ele>230</ele>
        <time>2013-08-25T14:36:51Z</time>
      </trkpt>
      <trkpt lat="43.44328" lon="1.50395">
        <ele>231</ele>
        <time>2013-08-25T14:36:52Z</time>
      </trkpt>
      <trkpt lat="43.44324" lon="1.50399">
        <ele>231</ele>
        <time>2013-08-25T14:36:53Z</time>
      </trkpt>
      <trkpt lat="43.44303" lon="1.50419">
        <ele>227</ele>
        <time>2013-08-25T14:36:57Z</time>
      </trkpt>
      <trkpt lat="43.44282" lon="1.50438">
        <ele>225</ele>
        <time>2013-08-25T14:37:00Z</time>
      </trkpt>
      <trkpt lat="43.44262" lon="1.50471">
        <ele>224</ele>
        <time>2013-08-25T14:37:06Z</time>
      </trkpt>
      <trkpt lat="43.44252" lon="1.50492">
        <ele>221</ele>
        <time>2013-08-25T14:37:11Z</time>
      </trkpt>
      <trkpt lat="43.44247" lon="1.50508">
        <ele>217</ele>
        <time>2013-08-25T14:37:15Z</time>
      </trkpt>
      <trkpt lat="43.44238" lon="1.50534">
        <ele>213</ele>
        <time>2013-08-25T14:37:20Z</time>
      </trkpt>
      <trkpt lat="43.44248" lon="1.50575">
        <ele>209</ele>
        <time>2013-08-25T14:37:26Z</time>
      </trkpt>
      <trkpt lat="43.44257" lon="1.50595">
        <ele>209</ele>
        <time>2013-08-25T14:37:29Z</time>
      </trkpt>
      <trkpt lat="43.44269" lon="1.50617">
        <ele>209</ele>
        <time>2013-08-25T14:37:34Z</time>
      </trkpt>
      <trkpt lat="43.44273" lon="1.50619">
        <ele>209</ele>
        <time>2013-08-25T14:37:36Z</time>
      </trkpt>
      <trkpt lat="43.44275" lon="1.50623">
        <ele>209</ele>
        <time>2013-08-25T14:37:38Z</time>
      </trkpt>
      <trkpt lat="43.44279" lon="1.50624">
        <ele>210</ele>
        <time>2013-08-25T14:37:42Z</time>
      </trkpt>
      <trkpt lat="43.44275" lon="1.50624">
        <ele>209</ele>
        <time>2013-08-25T14:37:46Z</time>
      </trkpt>
      <trkpt lat="43.44267" lon="1.50621">
        <ele>209</ele>
        <time>2013-08-25T14:37:53Z</time>
      </trkpt>
      <trkpt lat="43.44263" lon="1.50609">
        <ele>209</ele>
        <time>2013-08-25T14:38:00Z</time>
      </trkpt>
      <trkpt lat="43.44256" lon="1.50599">
        <ele>209</ele>
        <time>2013-08-25T14:38:06Z</time>
      </trkpt>
      <trkpt lat="43.44254" lon="1.50595">
        <ele>209</ele>
        <time>2013-08-25T14:38:12Z</time>
      </trkpt>
      <trkpt lat="43.44255" lon="1.50595">
        <ele>209</ele>
        <time>2013-08-25T14:38:13Z</time>
      </trkpt>
      <trkpt lat="43.44261" lon="1.50607">
        <ele>209</ele>
        <time>2013-08-25T14:38:21Z</time>
      </trkpt>
      <trkpt lat="43.44262" lon="1.50608">
        <ele>209</ele>
        <time>2013-08-25T14:38:22Z</time>
      </trkpt>
      <trkpt lat="43.44264" lon="1.50615">
        <ele>209</ele>
        <time>2013-08-25T14:38:26Z</time>
      </trkpt>
      <trkpt lat="43.44266" lon="1.50619">
        <ele>209</ele>
        <time>2013-08-25T14:38:33Z</time>
      </trkpt>
      <trkpt lat="43.44267" lon="1.50619">
        <ele>209</ele>
        <time>2013-08-25T14:38:44Z</time>
      </trkpt>
      <trkpt lat="43.44268" lon="1.50619">
        <ele>209</ele>
        <time>2013-08-25T14:38:56Z</time>
      </trkpt>
      <trkpt lat="43.44272" lon="1.50623">
        <ele>209</ele>
        <time>2013-08-25T14:39:04Z</time>
      </trkpt>
      <trkpt lat="43.44288" lon="1.50635">
        <ele>209</ele>
        <time>2013-08-25T14:39:11Z</time>
      </trkpt>
      <trkpt lat="43.44305" lon="1.50649">
        <ele>209</ele>
        <time>2013-08-25T14:39:19Z</time>
      </trkpt>
      <trkpt lat="43.4433" lon="1.50658">
        <ele>208</ele>
        <time>2013-08-25T14:39:29Z</time>
      </trkpt>
      <trkpt lat="43.44345" lon="1.50658">
        <ele>210</ele>
        <time>2013-08-25T14:39:35Z</time>
      </trkpt>
      <trkpt lat="43.44366" lon="1.50653">
        <ele>211</ele>
        <time>2013-08-25T14:39:43Z</time>
      </trkpt>
      <trkpt lat="43.44389" lon="1.50638">
        <ele>212</ele>
        <time>2013-08-25T14:39:52Z</time>
      </trkpt>
      <trkpt lat="43.44409" lon="1.5062">
        <ele>212</ele>
        <time>2013-08-25T14:40:00Z</time>
      </trkpt>
      <trkpt lat="43.44428" lon="1.50603">
        <ele>212</ele>
        <time>2013-08-25T14:40:08Z</time>
      </trkpt>
      <trkpt lat="43.44444" lon="1.50587">
        <ele>212</ele>
        <time>2013-08-25T14:40:15Z</time>
      </trkpt>
      <trkpt lat="43.44458" lon="1.50577">
        <ele>214</ele>
        <time>2013-08-25T14:40:21Z</time>
      </trkpt>
      <trkpt lat="43.44472" lon="1.5059">
        <ele>210</ele>
        <time>2013-08-25T14:40:28Z</time>
      </trkpt>
      <trkpt lat="43.44474" lon="1.50595">
        <ele>210</ele>
        <time>2013-08-25T14:40:31Z</time>
      </trkpt>
      <trkpt lat="43.44472" lon="1.5062">
        <ele>211</ele>
        <time>2013-08-25T14:40:41Z</time>
      </trkpt>
      <trkpt lat="43.44467" lon="1.50639">
        <ele>211</ele>
        <time>2013-08-25T14:40:50Z</time>
      </trkpt>
      <trkpt lat="43.44461" lon="1.50657">
        <ele>211</ele>
        <time>2013-08-25T14:40:59Z</time>
      </trkpt>
      <trkpt lat="43.44457" lon="1.50672">
        <ele>213</ele>
        <time>2013-08-25T14:41:07Z</time>
      </trkpt>
      <trkpt lat="43.44454" lon="1.50689">
        <ele>213</ele>
        <time>2013-08-25T14:41:15Z</time>
      </trkpt>
      <trkpt lat="43.44454" lon="1.50699">
        <ele>213</ele>
        <time>2013-08-25T14:41:20Z</time>
      </trkpt>
      <trkpt lat="43.44447" lon="1.50722">
        <ele>214</ele>
        <time>2013-08-25T14:41:31Z</time>
      </trkpt>
      <trkpt lat="43.44441" lon="1.50743">
        <ele>215</ele>
        <time>2013-08-25T14:41:40Z</time>
      </trkpt>
      <trkpt lat="43.44433" lon="1.50764">
        <ele>219</ele>
        <time>2013-08-25T14:41:50Z</time>
      </trkpt>
      <trkpt lat="43.44425" lon="1.50785">
        <ele>220</ele>
        <time>2013-08-25T14:41:59Z</time>
      </trkpt>
      <trkpt lat="43.44419" lon="1.50806">
        <ele>221</ele>
        <time>2013-08-25T14:42:07Z</time>
      </trkpt>
      <trkpt lat="43.44409" lon="1.50832">
        <ele>221</ele>
        <time>2013-08-25T14:42:17Z</time>
      </trkpt>
      <trkpt lat="43.444" lon="1.50855">
        <ele>223</ele>
        <time>2013-08-25T14:42:26Z</time>
      </trkpt>
      <trkpt lat="43.44394" lon="1.50874">
        <ele>223</ele>
        <time>2013-08-25T14:42:33Z</time>
      </trkpt>
      <trkpt lat="43.44387" lon="1.50897">
        <ele>224</ele>
        <time>2013-08-25T14:42:42Z</time>
      </trkpt>
      <trkpt lat="43.44383" lon="1.50915">
        <ele>224</ele>
        <time>2013-08-25T14:42:49Z</time>
      </trkpt>
    </trkseg>
  </trk>
</gpx>